createdAt,value
2017-11-26T00:02:06.066Z,2.74
2017-11-26T00:04:32.193Z,2.62
2017-11-26T00:06:58.374Z,2.61
2017-11-26T00:09:24.495Z,2.52
2017-11-26T00:11:50.609Z,2.35
2017-11-26T00:14:16.730Z,2.43
2017-11-26T00:16:42.869Z,2.37
2017-11-26T00:19:08.978Z,2.31
2017-11-26T00:21:35.102Z,2.42
2017-11-26T00:24:01.285Z,2.34
2017-11-26T00:26:27.491Z,2.09
2017-11-26T00:28:53.567Z,2.15
2017-11-26T00:31:19.802Z,2.02
2017-11-26T00:33:45.946Z,2.02
2017-11-26T00:36:12.061Z,1.96
2017-11-26T00:38:38.174Z,2.15
2017-11-26T00:41:04.297Z,2.00
2017-11-26T00:43:30.439Z,2.19
2017-11-26T00:45:56.598Z,2.25
2017-11-26T00:48:22.709Z,2.33
2017-11-26T00:50:48.780Z,2.52
2017-11-26T00:53:14.874Z,2.59
2017-11-26T00:55:59.360Z,2.50
2017-11-26T00:58:25.453Z,2.46
2017-11-26T01:00:51.579Z,2.47
2017-11-26T01:03:17.685Z,2.48
2017-11-26T01:05:43.831Z,2.49
2017-11-26T01:08:09.966Z,2.27
2017-11-26T01:10:36.127Z,2.15
2017-11-26T01:13:02.366Z,2.08
2017-11-26T01:15:28.470Z,2.13
2017-11-26T01:17:54.581Z,2.30
2017-11-26T01:20:20.725Z,2.36
2017-11-26T01:22:46.858Z,2.20
2017-11-26T01:25:12.992Z,2.05
2017-11-26T01:27:39.109Z,2.15
2017-11-26T01:30:05.297Z,2.12
2017-11-26T01:32:31.417Z,2.17
2017-11-26T01:34:57.531Z,2.10
2017-11-26T01:37:23.762Z,2.26
2017-11-26T01:39:49.926Z,2.25
2017-11-26T01:42:16.027Z,2.36
2017-11-26T01:44:42.169Z,2.42
2017-11-26T01:47:08.350Z,2.52
2017-11-26T01:49:34.485Z,2.51
2017-11-26T01:52:00.569Z,2.46
2017-11-26T01:54:26.693Z,2.51
2017-11-26T01:56:52.826Z,2.53
2017-11-26T01:59:18.929Z,2.47
2017-11-26T02:01:45.149Z,2.53
2017-11-26T02:04:11.209Z,2.57
2017-11-26T02:06:37.346Z,2.56
2017-11-26T02:09:03.485Z,2.54
2017-11-26T02:11:29.678Z,2.54
2017-11-26T02:13:55.885Z,2.56
2017-11-26T02:16:22.001Z,2.50
2017-11-26T02:18:48.141Z,2.34
2017-11-26T02:21:14.204Z,2.38
2017-11-26T02:23:40.278Z,2.51
2017-11-26T02:26:06.482Z,2.50
2017-11-26T02:28:32.567Z,2.70
2017-11-26T02:30:58.694Z,2.74
2017-11-26T02:33:36.899Z,2.79
2017-11-26T02:36:20.968Z,2.64
2017-11-26T02:38:47.075Z,2.54
2017-11-26T02:41:13.203Z,2.42
2017-11-26T02:43:39.303Z,2.41
2017-11-26T02:46:05.365Z,2.39
2017-11-26T02:48:31.533Z,2.31
2017-11-26T02:50:57.628Z,2.35
2017-11-26T02:53:23.723Z,2.36
2017-11-26T02:55:49.817Z,2.28
2017-11-26T02:58:15.962Z,2.33
2017-11-26T03:00:42.093Z,2.63
2017-11-26T03:03:08.289Z,2.59
2017-11-26T03:05:34.443Z,2.64
2017-11-26T03:08:00.549Z,2.65
2017-11-26T03:10:26.661Z,2.71
2017-11-26T03:12:52.821Z,2.79
2017-11-26T03:15:18.982Z,2.80
2017-11-26T03:17:45.139Z,2.76
2017-11-26T03:20:11.259Z,2.74
2017-11-26T03:22:37.370Z,2.71
2017-11-26T03:25:03.901Z,2.63
2017-11-26T03:27:30.061Z,2.62
2017-11-26T03:29:56.230Z,2.58
2017-11-26T03:32:22.410Z,2.51
2017-11-26T03:34:48.550Z,2.44
2017-11-26T03:37:14.678Z,2.48
2017-11-26T03:39:40.814Z,2.49
2017-11-26T03:42:06.954Z,2.50
2017-11-26T03:44:33.029Z,2.49
2017-11-26T03:46:59.145Z,2.46
2017-11-26T03:49:25.235Z,2.41
2017-11-26T03:51:51.306Z,2.37
2017-11-26T03:54:17.462Z,2.31
2017-11-26T03:56:43.601Z,2.30
2017-11-26T03:59:09.708Z,2.29
2017-11-26T04:01:35.814Z,2.31
2017-11-26T04:04:02.106Z,2.33
2017-11-26T04:06:28.185Z,2.35
2017-11-26T04:08:54.316Z,2.35
2017-11-26T04:11:20.443Z,2.34
2017-11-26T04:13:46.535Z,2.30
2017-11-26T04:16:12.622Z,2.29
2017-11-26T04:18:38.737Z,2.28
2017-11-26T04:21:04.902Z,2.30
2017-11-26T04:23:31.010Z,2.27
2017-11-26T04:25:57.087Z,2.26
2017-11-26T04:28:23.204Z,2.32
2017-11-26T04:30:49.291Z,2.29
2017-11-26T04:33:15.401Z,2.26
2017-11-26T04:35:41.541Z,2.24
2017-11-26T04:38:07.722Z,2.21
2017-11-26T04:40:33.861Z,2.15
2017-11-26T04:42:59.970Z,2.14
2017-11-26T04:45:26.179Z,2.05
2017-11-26T04:47:52.319Z,1.97
2017-11-26T04:50:18.460Z,1.97
2017-11-26T04:52:44.573Z,1.89
2017-11-26T04:55:10.784Z,1.70
2017-11-26T04:57:36.924Z,1.60
2017-11-26T05:00:03.097Z,1.56
2017-11-26T05:02:29.218Z,1.78
2017-11-26T05:04:55.263Z,1.66
2017-11-26T05:07:21.405Z,1.60
2017-11-26T05:09:47.541Z,1.62
2017-11-26T05:12:13.681Z,1.57
2017-11-26T05:14:39.797Z,1.61
2017-11-26T05:17:05.906Z,1.51
2017-11-26T05:19:32.080Z,1.53
2017-11-26T05:21:58.204Z,1.68
2017-11-26T05:24:24.378Z,1.60
2017-11-26T05:26:50.559Z,1.84
2017-11-26T05:29:16.685Z,1.78
2017-11-26T05:31:42.882Z,2.01
2017-11-26T05:34:08.939Z,2.09
2017-11-26T05:36:35.094Z,2.11
2017-11-26T05:39:01.212Z,2.09
2017-11-26T05:41:27.301Z,2.07
2017-11-26T05:43:53.416Z,2.11
2017-11-26T05:46:19.527Z,1.96
2017-11-26T05:48:45.687Z,2.04
2017-11-26T05:51:11.843Z,2.05
2017-11-26T05:53:38.018Z,2.06
2017-11-26T05:56:04.220Z,2.06
2017-11-26T05:58:30.339Z,2.03
2017-11-26T06:00:56.504Z,2.00
2017-11-26T06:03:22.621Z,2.00
2017-11-26T06:05:48.785Z,1.98
2017-11-26T06:08:14.885Z,1.97
2017-11-26T06:10:41.050Z,1.94
2017-11-26T06:13:07.238Z,1.95
2017-11-26T06:15:33.337Z,1.96
2017-11-26T06:17:59.456Z,1.98
2017-11-26T06:20:25.555Z,2.06
2017-11-26T06:22:51.726Z,2.09
2017-11-26T06:25:17.858Z,2.11
2017-11-26T06:27:43.984Z,2.10
2017-11-26T06:30:10.089Z,2.12
2017-11-26T06:32:36.220Z,2.05
2017-11-26T06:35:02.444Z,2.11
2017-11-26T06:37:28.598Z,2.12
2017-11-26T06:39:54.632Z,2.14
2017-11-26T06:42:20.752Z,2.11
2017-11-26T06:44:46.866Z,2.09
2017-11-26T06:47:13.013Z,2.04
2017-11-26T06:49:39.149Z,1.99
2017-11-26T06:52:05.309Z,2.03
2017-11-26T06:54:31.484Z,2.00
2017-11-26T06:56:57.594Z,1.96
2017-11-26T06:59:23.752Z,1.98
2017-11-26T07:01:49.932Z,1.98
2017-11-26T07:04:16.037Z,1.97
2017-11-26T07:06:42.274Z,1.91
2017-11-26T07:09:08.378Z,1.89
2017-11-26T07:11:34.461Z,1.80
2017-11-26T07:14:00.598Z,1.81
2017-11-26T07:16:26.773Z,1.81
2017-11-26T07:18:52.885Z,1.83
2017-11-26T07:21:19.002Z,1.82
2017-11-26T07:23:45.179Z,1.80
2017-11-26T07:26:11.297Z,1.83
2017-11-26T07:28:37.409Z,1.81
2017-11-26T07:31:03.529Z,1.79
2017-11-26T07:33:29.642Z,1.75
2017-11-26T07:35:55.908Z,1.76
2017-11-26T07:38:22.037Z,1.77
2017-11-26T07:40:48.165Z,1.79
2017-11-26T07:43:14.363Z,1.80
2017-11-26T07:45:40.469Z,1.80
2017-11-26T07:48:06.593Z,1.82
2017-11-26T07:50:32.725Z,1.80
2017-11-26T07:52:58.838Z,1.77
2017-11-26T07:55:25.051Z,1.66
2017-11-26T07:57:51.190Z,1.60
2017-11-26T08:00:17.322Z,1.54
2017-11-26T08:02:43.675Z,1.45
2017-11-26T08:05:09.839Z,1.56
2017-11-26T08:07:35.983Z,1.57
2017-11-26T08:10:02.142Z,1.62
2017-11-26T08:12:28.246Z,1.61
2017-11-26T08:14:54.402Z,1.62
2017-11-26T08:17:20.573Z,1.66
2017-11-26T08:19:46.649Z,1.71
2017-11-26T08:22:12.783Z,1.77
2017-11-26T08:24:38.895Z,1.87
2017-11-26T08:27:05.090Z,1.91
2017-11-26T08:29:31.166Z,1.98
2017-11-26T08:31:57.230Z,1.96
2017-11-26T08:34:23.397Z,2.01
2017-11-26T08:36:49.519Z,2.07
2017-11-26T08:39:15.700Z,2.08
2017-11-26T08:41:41.853Z,2.00
2017-11-26T08:44:08.072Z,1.99
2017-11-26T08:46:34.267Z,2.01
2017-11-26T08:49:00.441Z,1.92
2017-11-26T08:51:26.749Z,1.90
2017-11-26T08:53:52.992Z,1.90
2017-11-26T08:56:19.183Z,1.89
2017-11-26T08:58:45.318Z,2.00
2017-11-26T09:01:11.448Z,1.92
2017-11-26T09:03:37.616Z,1.95
2017-11-26T09:06:03.778Z,1.98
2017-11-26T09:08:29.918Z,1.98
2017-11-26T09:10:56.061Z,2.00
2017-11-26T09:13:22.404Z,1.99
2017-11-26T09:15:48.537Z,2.02
2017-11-26T09:18:14.691Z,1.96
2017-11-26T09:20:40.855Z,1.95
2017-11-26T09:23:07.083Z,1.96
2017-11-26T09:25:33.214Z,2.04
2017-11-26T09:27:59.376Z,2.12
2017-11-26T09:30:25.576Z,2.04
2017-11-26T09:32:51.787Z,2.05
2017-11-26T09:35:17.946Z,1.98
2017-11-26T09:37:44.068Z,1.97
2017-11-26T09:40:10.131Z,1.93
2017-11-26T09:42:36.345Z,1.90
2017-11-26T09:45:02.518Z,1.88
2017-11-26T09:47:28.652Z,1.93
2017-11-26T09:49:54.783Z,2.02
2017-11-26T09:52:20.899Z,2.08
2017-11-26T09:54:47.082Z,2.24
2017-11-26T09:57:13.181Z,2.32
2017-11-26T09:59:39.326Z,2.31
2017-11-26T10:02:05.433Z,2.40
2017-11-26T10:04:31.578Z,2.39
2017-11-26T10:06:57.659Z,2.44
2017-11-26T10:09:24.172Z,2.56
2017-11-26T10:11:50.293Z,2.54
2017-11-26T10:14:16.409Z,2.51
2017-11-26T10:16:42.560Z,2.63
2017-11-26T10:19:08.694Z,2.65
2017-11-26T10:21:34.845Z,2.68
2017-11-26T10:24:00.962Z,2.69
2017-11-26T10:26:27.114Z,2.76
2017-11-26T10:28:53.322Z,2.72
2017-11-26T10:31:19.437Z,2.80
2017-11-26T10:33:45.561Z,2.78
2017-11-26T10:36:12.770Z,2.80
2017-11-26T10:38:39.976Z,2.76
2017-11-26T10:41:06.075Z,2.72
2017-11-26T10:43:32.191Z,2.65
2017-11-26T10:46:00.003Z,2.66
2017-11-26T10:48:26.163Z,2.61
2017-11-26T10:50:52.261Z,2.59
2017-11-26T10:53:18.422Z,2.64
2017-11-26T10:55:45.062Z,2.63
2017-11-26T10:58:11.146Z,2.60
2017-11-26T11:00:37.406Z,2.61
2017-11-26T11:03:03.509Z,2.59
2017-11-26T11:05:29.582Z,2.60
2017-11-26T11:07:55.731Z,2.57
2017-11-26T11:10:21.799Z,2.66
2017-11-26T11:12:47.961Z,2.68
2017-11-26T11:15:14.117Z,2.72
2017-11-26T11:17:51.575Z,2.73
2017-11-26T11:20:21.156Z,2.69
2017-11-26T11:22:47.319Z,2.69
2017-11-26T11:25:13.482Z,2.64
2017-11-26T11:27:39.788Z,2.72
2017-11-26T11:30:05.856Z,2.80
2017-11-26T11:32:31.992Z,2.84
2017-11-26T11:34:58.055Z,2.89
2017-11-26T11:37:24.299Z,2.91
2017-11-26T11:39:50.411Z,2.91
2017-11-26T11:42:16.571Z,2.89
2017-11-26T11:44:42.761Z,2.79
2017-11-26T11:47:09.517Z,2.84
2017-11-26T11:49:35.694Z,2.76
2017-11-26T11:52:01.911Z,2.84
2017-11-26T11:54:28.022Z,2.86
2017-11-26T11:56:54.170Z,2.83
2017-11-26T11:59:20.320Z,2.81
2017-11-26T12:01:46.469Z,2.83
2017-11-26T12:04:12.628Z,2.91
2017-11-26T12:06:38.778Z,2.91
2017-11-26T12:09:04.918Z,2.89
2017-11-26T12:11:31.017Z,2.93
2017-11-26T12:13:57.155Z,2.96
2017-11-26T12:16:23.334Z,2.99
2017-11-26T12:18:49.518Z,2.98
2017-11-26T12:21:15.623Z,3.02
2017-11-26T12:23:42.038Z,3.07
2017-11-26T12:26:08.123Z,3.08
2017-11-26T12:28:34.217Z,3.00
2017-11-26T12:31:00.291Z,2.99
2017-11-26T12:33:26.367Z,3.05
2017-11-26T12:35:52.551Z,3.06
2017-11-26T12:38:18.666Z,2.98
2017-11-26T12:40:44.781Z,3.00
2017-11-26T12:43:10.874Z,3.05
2017-11-26T12:45:37.025Z,3.12
2017-11-26T12:48:03.155Z,3.12
2017-11-26T12:50:29.297Z,3.10
2017-11-26T12:52:55.411Z,3.11
2017-11-26T12:55:21.895Z,3.11
2017-11-26T12:57:48.069Z,3.14
2017-11-26T13:00:14.349Z,3.01
2017-11-26T13:02:40.454Z,3.08
2017-11-26T13:05:06.747Z,3.04
2017-11-26T13:07:32.874Z,3.01
2017-11-26T13:09:59.043Z,3.04
2017-11-26T13:12:25.166Z,3.18
2017-11-26T13:14:51.315Z,3.20
2017-11-26T13:17:17.421Z,3.16
2017-11-26T13:19:43.515Z,3.17
2017-11-26T13:22:09.605Z,3.20
2017-11-26T13:24:35.717Z,3.24
2017-11-26T13:27:01.799Z,3.23
2017-11-26T13:29:28.002Z,3.23
2017-11-26T13:31:54.167Z,3.23
2017-11-26T13:34:20.286Z,3.30
2017-11-26T13:36:46.361Z,3.19
2017-11-26T13:39:12.471Z,3.15
2017-11-26T13:41:38.789Z,3.14
2017-11-26T13:44:04.933Z,3.10
2017-11-26T13:46:31.059Z,3.21
2017-11-26T13:48:57.136Z,3.34
2017-11-26T13:51:23.290Z,3.07
2017-11-26T13:53:49.356Z,3.04
2017-11-26T13:56:15.462Z,2.98
2017-11-26T13:58:41.670Z,2.94
2017-11-26T14:01:07.892Z,2.90
2017-11-26T14:03:35.316Z,2.88
2017-11-26T14:06:01.454Z,2.86
2017-11-26T14:08:27.563Z,2.80
2017-11-26T14:10:53.634Z,2.78
2017-11-26T14:13:19.752Z,2.82
2017-11-26T14:15:45.864Z,2.72
2017-11-26T14:18:12.010Z,2.74
2017-11-26T14:20:38.100Z,2.67
2017-11-26T14:23:04.212Z,2.62
2017-11-26T14:25:30.343Z,2.62
2017-11-26T14:27:56.464Z,2.65
2017-11-26T14:30:22.735Z,2.64
2017-11-26T14:32:48.821Z,2.66
2017-11-26T14:35:14.978Z,2.61
2017-11-26T14:37:41.102Z,2.58
2017-11-26T14:40:07.227Z,2.53
2017-11-26T14:42:33.338Z,2.43
2017-11-26T14:44:59.469Z,2.37
2017-11-26T14:47:25.657Z,2.30
2017-11-26T14:49:51.741Z,2.30
2017-11-26T14:52:17.905Z,2.25
2017-11-26T14:54:44.570Z,2.25
2017-11-26T14:57:10.676Z,2.23
2017-11-26T14:59:42.060Z,2.24
2017-11-26T15:02:08.624Z,2.33
2017-11-26T15:04:34.717Z,2.34
2017-11-26T15:07:01.006Z,2.35
2017-11-26T15:09:27.162Z,2.35
2017-11-26T15:11:53.331Z,2.38
2017-11-26T15:14:19.529Z,2.30
2017-11-26T15:16:45.662Z,2.29
2017-11-26T15:19:11.766Z,2.34
2017-11-26T15:21:37.879Z,2.42
2017-11-26T15:24:03.988Z,2.33
2017-11-26T15:26:30.606Z,2.32
2017-11-26T15:28:56.690Z,2.33
2017-11-26T15:31:23.105Z,2.33
2017-11-26T15:33:49.221Z,2.39
2017-11-26T15:36:15.309Z,2.33
2017-11-26T15:38:41.430Z,2.30
2017-11-26T15:41:07.519Z,2.27
2017-11-26T15:43:33.680Z,2.35
2017-11-26T15:45:59.804Z,2.28
2017-11-26T15:48:25.878Z,2.19
2017-11-26T15:50:52.050Z,2.22
2017-11-26T15:53:18.213Z,2.19
2017-11-26T15:55:44.536Z,2.17
2017-11-26T15:58:10.657Z,2.22
2017-11-26T16:00:36.790Z,2.29
2017-11-26T16:03:02.940Z,2.25
2017-11-26T16:05:29.026Z,2.28
2017-11-26T16:07:55.271Z,2.23
2017-11-26T16:10:21.398Z,2.21
2017-11-26T16:12:47.497Z,2.20
2017-11-26T16:15:13.662Z,2.06
2017-11-26T16:17:40.229Z,2.04
2017-11-26T16:20:06.967Z,1.98
2017-11-26T16:22:33.107Z,1.96
2017-11-26T16:24:59.318Z,1.98
2017-11-26T16:27:25.413Z,1.92
2017-11-26T16:29:51.481Z,1.93
2017-11-26T16:32:17.597Z,1.95
2017-11-26T16:34:43.761Z,1.98
2017-11-26T16:37:09.893Z,1.96
2017-11-26T16:39:36.032Z,1.94
2017-11-26T16:42:02.207Z,1.94
2017-11-26T16:44:28.390Z,1.94
2017-11-26T16:46:54.556Z,1.89
2017-11-26T16:49:20.745Z,1.89
2017-11-26T16:51:47.113Z,1.91
2017-11-26T16:54:13.237Z,1.96
2017-11-26T16:56:39.380Z,1.91
2017-11-26T16:59:05.541Z,1.88
2017-11-26T17:01:31.629Z,1.81
2017-11-26T17:03:57.767Z,1.77
2017-11-26T17:06:24.702Z,1.76
2017-11-26T17:08:50.902Z,1.71
2017-11-26T17:11:17.095Z,1.65
2017-11-26T17:13:43.281Z,1.68
2017-11-26T17:16:10.330Z,1.69
2017-11-26T17:18:36.545Z,1.73
2017-11-26T17:21:02.636Z,1.74
2017-11-26T17:23:28.776Z,1.72
2017-11-26T17:25:55.051Z,1.74
2017-11-26T17:28:21.215Z,1.72
2017-11-26T17:30:47.287Z,1.74
2017-11-26T17:33:13.385Z,1.77
2017-11-26T17:35:39.615Z,1.76
2017-11-26T17:38:05.777Z,1.76
2017-11-26T17:40:32.122Z,1.73
2017-11-26T17:42:58.594Z,1.75
2017-11-26T17:45:24.681Z,1.78
2017-11-26T17:47:50.872Z,1.77
2017-11-26T17:50:17.045Z,1.74
2017-11-26T17:52:43.129Z,1.80
2017-11-26T17:55:09.258Z,1.78
2017-11-26T17:57:35.431Z,1.81
2017-11-26T18:00:01.710Z,1.79
2017-11-26T18:02:27.784Z,1.81
2017-11-26T18:04:54.008Z,1.84
2017-11-26T18:07:20.128Z,1.90
2017-11-26T18:09:46.335Z,1.91
2017-11-26T18:12:12.624Z,1.91
2017-11-26T18:14:38.833Z,1.90
2017-11-26T18:17:05.046Z,1.91
2017-11-26T18:19:31.205Z,1.88
2017-11-26T18:21:57.382Z,1.91
2017-11-26T18:24:23.542Z,1.94
2017-11-26T18:26:49.682Z,2.00
2017-11-26T18:29:15.877Z,2.01
2017-11-26T18:31:41.923Z,2.04
2017-11-26T18:34:08.147Z,2.03
2017-11-26T18:36:34.338Z,2.05
2017-11-26T18:39:00.458Z,2.04
2017-11-26T18:41:26.750Z,2.02
2017-11-26T18:43:52.908Z,1.97
2017-11-26T18:46:19.353Z,1.86
2017-11-26T18:48:45.548Z,1.95
2017-11-26T18:51:11.841Z,1.98
2017-11-26T18:53:38.071Z,2.02
2017-11-26T18:56:04.262Z,2.01
2017-11-26T18:58:30.448Z,1.99
2017-11-26T19:00:56.670Z,2.02
2017-11-26T19:03:22.806Z,2.07
2017-11-26T19:05:49.037Z,2.09
2017-11-26T19:08:15.311Z,2.06
2017-11-26T19:10:41.487Z,2.04
2017-11-26T19:13:07.737Z,2.08
2017-11-26T19:15:34.809Z,2.13
2017-11-26T19:18:00.964Z,2.15
2017-11-26T19:20:27.127Z,2.14
2017-11-26T19:22:53.290Z,2.10
2017-11-26T19:25:19.475Z,2.07
2017-11-26T19:27:45.729Z,2.07
2017-11-26T19:30:11.960Z,1.99
2017-11-26T19:32:38.292Z,2.04
2017-11-26T19:35:04.567Z,2.09
2017-11-26T19:37:31.896Z,2.06
2017-11-26T19:39:58.206Z,2.12
2017-11-26T19:42:24.398Z,2.10
2017-11-26T19:44:50.740Z,2.10
2017-11-26T19:47:17.007Z,2.13
2017-11-26T19:49:43.333Z,2.09
2017-11-26T19:52:10.985Z,2.20
2017-11-26T19:54:37.377Z,2.23
2017-11-26T19:57:03.829Z,2.18
2017-11-26T19:59:30.241Z,2.14
2017-11-26T20:01:56.603Z,2.09
2017-11-26T20:04:23.092Z,2.08
2017-11-26T20:06:49.788Z,2.05
2017-11-26T20:09:16.127Z,2.01
2017-11-26T20:11:42.731Z,2.01
2017-11-26T20:14:09.004Z,2.01
2017-11-26T20:16:35.441Z,2.00
2017-11-26T20:19:01.715Z,1.97
2017-11-26T20:21:28.760Z,1.95
2017-11-26T20:23:55.556Z,1.96
2017-11-26T20:26:21.843Z,1.96
2017-11-26T20:28:48.422Z,1.95
2017-11-26T20:31:15.984Z,1.95
2017-11-26T20:33:42.984Z,1.90
2017-11-26T20:36:09.407Z,1.95
2017-11-26T20:38:36.291Z,1.93
2017-11-26T20:41:02.570Z,1.91
2017-11-26T20:43:28.930Z,1.92
2017-11-26T20:45:55.168Z,1.93
2017-11-26T20:48:21.543Z,1.92
2017-11-26T20:50:47.854Z,1.92
2017-11-26T20:53:14.193Z,1.93
2017-11-26T20:55:40.470Z,1.96
2017-11-26T20:58:06.744Z,1.96
2017-11-26T21:00:33.056Z,1.97
2017-11-26T21:03:00.530Z,1.96
2017-11-26T21:05:27.540Z,2.00
2017-11-26T21:07:53.752Z,2.03
2017-11-26T21:10:19.995Z,2.01
2017-11-26T21:12:46.475Z,1.98
2017-11-26T21:15:12.847Z,1.99
2017-11-26T21:17:39.154Z,1.99
2017-11-26T21:20:05.460Z,2.00
2017-11-26T21:22:31.780Z,2.02
2017-11-26T21:24:57.939Z,2.02
2017-11-26T21:27:24.268Z,2.05
2017-11-26T21:29:50.485Z,2.06
2017-11-26T21:32:16.646Z,2.06
2017-11-26T21:34:42.811Z,2.03
2017-11-26T21:37:08.951Z,2.03
2017-11-26T21:39:35.085Z,2.00
2017-11-26T21:42:01.256Z,1.99
2017-11-26T21:44:27.346Z,1.99
2017-11-26T21:46:53.455Z,2.02
2017-11-26T21:49:19.597Z,1.99
2017-11-26T21:51:45.783Z,1.97
2017-11-26T21:54:11.905Z,2.01
2017-11-26T21:56:38.043Z,1.99
2017-11-26T21:59:04.181Z,2.01
2017-11-26T22:01:30.268Z,2.01
2017-11-26T22:03:56.381Z,2.04
2017-11-26T22:06:22.513Z,2.03
2017-11-26T22:08:48.728Z,2.09
2017-11-26T22:11:14.873Z,2.09
2017-11-26T22:13:41.430Z,2.08
2017-11-26T22:16:07.583Z,2.07
2017-11-26T22:18:33.741Z,2.07
2017-11-26T22:20:59.861Z,2.04
2017-11-26T22:23:26.013Z,2.01
2017-11-26T22:25:52.155Z,2.06
2017-11-26T22:28:18.317Z,2.05
2017-11-26T22:30:44.445Z,2.06
2017-11-26T22:33:10.708Z,2.07
2017-11-26T22:35:36.830Z,2.11
2017-11-26T22:38:02.990Z,2.10
2017-11-26T22:40:29.178Z,2.10
2017-11-26T22:42:55.307Z,2.12
2017-11-26T22:45:21.437Z,2.12
2017-11-26T22:47:47.609Z,2.15
2017-11-26T22:50:13.738Z,2.12
2017-11-26T22:52:39.873Z,2.14
2017-11-26T22:55:05.978Z,2.06
2017-11-26T22:57:32.115Z,2.13
2017-11-26T22:59:58.309Z,2.14
2017-11-26T23:02:24.470Z,2.13
2017-11-26T23:04:51.273Z,2.12
2017-11-26T23:07:17.397Z,2.14
2017-11-26T23:09:43.497Z,2.16
2017-11-26T23:12:09.753Z,2.11
2017-11-26T23:14:35.890Z,2.14
2017-11-26T23:17:02.042Z,2.13
2017-11-26T23:19:28.176Z,2.13
2017-11-26T23:21:54.286Z,2.15
2017-11-26T23:24:20.415Z,2.13
2017-11-26T23:26:46.483Z,2.13
2017-11-26T23:29:12.622Z,2.11
2017-11-26T23:31:38.766Z,2.13
2017-11-26T23:34:05.103Z,2.15
2017-11-26T23:36:31.310Z,2.16
2017-11-26T23:38:57.466Z,2.16
2017-11-26T23:41:23.747Z,2.15
2017-11-26T23:43:49.967Z,2.13
2017-11-26T23:46:16.144Z,2.11
2017-11-26T23:48:42.327Z,2.05
2017-11-26T23:51:08.497Z,2.05
2017-11-26T23:53:34.691Z,2.08
2017-11-26T23:56:00.845Z,2.14
2017-11-26T23:58:26.978Z,2.15
